sensor_id;sensor_type;location;lat;lon;timestamp;temperature;humidity
17762;DHT22;9005;48.838;10.112;2023-08-20T00:00:44;21.60;99.90
17762;DHT22;9005;48.838;10.112;2023-08-20T00:03:12;21.60;99.90
17762;DHT22;9005;48.838;10.112;2023-08-20T00:05:40;21.50;99.90
17762;DHT22;9005;48.838;10.112;2023-08-20T00:08:07;21.50;99.90
17762;DHT22;9005;48.838;10.112;2023-08-20T00:10:33;21.40;99.90
17762;DHT22;9005;48.838;10.112;2023-08-20T00:13:00;21.40;99.90
17762;DHT22;9005;48.838;10.112;2023-08-20T00:15:27;21.40;99.90
17762;DHT22;9005;48.838;10.112;2023-08-20T00:17:55;21.40;99.90
17762;DHT22;9005;48.838;10.112;2023-08-20T00:20:23;21.40;99.90
17762;DHT22;9005;48.838;10.112;2023-08-20T00:22:50;21.40;99.90
17762;DHT22;9005;48.838;10.112;2023-08-20T00:25:18;21.30;99.90
17762;DHT22;9005;48.838;10.112;2023-08-20T00:27:44;21.30;99.90
17762;DHT22;9005;48.838;10.112;2023-08-20T00:30:12;21.20;99.90
17762;DHT22;9005;48.838;10.112;2023-08-20T00:32:39;21.20;99.90
17762;DHT22;9005;48.838;10.112;2023-08-20T00:35:07;21.20;99.90
17762;DHT22;9005;48.838;10.112;2023-08-20T00:37:34;21.20;99.90
17762;DHT22;9005;48.838;10.112;2023-08-20T00:40:01;21.20;99.90
17762;DHT22;9005;48.838;10.112;2023-08-20T00:44:57;21.10;99.90
17762;DHT22;9005;48.838;10.112;2023-08-20T00:47:24;21.00;99.90
17762;DHT22;9005;48.838;10.112;2023-08-20T00:49:51;21.00;99.90
17762;DHT22;9005;48.838;10.112;2023-08-20T00:52:20;21.00;99.90
17762;DHT22;9005;48.838;10.112;2023-08-20T00:54:48;20.90;99.90
17762;DHT22;9005;48.838;10.112;2023-08-20T00:57:15;20.90;99.90
17762;DHT22;9005;48.838;10.112;2023-08-20T00:59:44;20.80;99.90
17762;DHT22;9005;48.838;10.112;2023-08-20T01:02:13;20.80;99.90
17762;DHT22;9005;48.838;10.112;2023-08-20T01:04:40;20.80;99.90
17762;DHT22;9005;48.838;10.112;2023-08-20T01:07:12;20.80;99.90
17762;DHT22;9005;48.838;10.112;2023-08-20T01:09:48;20.80;99.90
17762;DHT22;9005;48.838;10.112;2023-08-20T01:12:17;20.80;99.90
17762;DHT22;9005;48.838;10.112;2023-08-20T01:14:44;20.80;99.90
17762;DHT22;9005;48.838;10.112;2023-08-20T01:17:11;20.80;99.90
17762;DHT22;9005;48.838;10.112;2023-08-20T01:19:38;20.80;99.90
17762;DHT22;9005;48.838;10.112;2023-08-20T01:22:35;20.80;99.90
17762;DHT22;9005;48.838;10.112;2023-08-20T01:25:15;20.80;99.90
17762;DHT22;9005;48.838;10.112;2023-08-20T01:27:52;20.80;99.90
17762;DHT22;9005;48.838;10.112;2023-08-20T01:30:22;20.90;99.90
17762;DHT22;9005;48.838;10.112;2023-08-20T01:32:50;20.80;99.90
17762;DHT22;9005;48.838;10.112;2023-08-20T01:35:18;20.80;99.90
17762;DHT22;9005;48.838;10.112;2023-08-20T01:37:45;20.80;99.90
17762;DHT22;9005;48.838;10.112;2023-08-20T01:40:12;20.80;99.90
17762;DHT22;9005;48.838;10.112;2023-08-20T01:42:39;20.80;99.90
17762;DHT22;9005;48.838;10.112;2023-08-20T01:45:07;20.80;99.90
17762;DHT22;9005;48.838;10.112;2023-08-20T01:47:36;20.80;99.90
17762;DHT22;9005;48.838;10.112;2023-08-20T01:50:04;20.80;99.90
17762;DHT22;9005;48.838;10.112;2023-08-20T01:52:31;20.80;99.90
17762;DHT22;9005;48.838;10.112;2023-08-20T01:54:58;20.80;99.90
17762;DHT22;9005;48.838;10.112;2023-08-20T01:57:25;20.80;99.90
17762;DHT22;9005;48.838;10.112;2023-08-20T01:59:51;20.70;99.90
17762;DHT22;9005;48.838;10.112;2023-08-20T02:02:18;20.70;99.90
17762;DHT22;9005;48.838;10.112;2023-08-20T02:04:47;20.70;99.90
17762;DHT22;9005;48.838;10.112;2023-08-20T02:07:13;20.70;99.90
17762;DHT22;9005;48.838;10.112;2023-08-20T02:09:40;20.70;99.90
17762;DHT22;9005;48.838;10.112;2023-08-20T02:12:07;20.60;99.90
17762;DHT22;9005;48.838;10.112;2023-08-20T02:14:34;20.60;99.90
17762;DHT22;9005;48.838;10.112;2023-08-20T02:17:01;20.50;99.90
17762;DHT22;9005;48.838;10.112;2023-08-20T02:19:28;20.50;99.90
17762;DHT22;9005;48.838;10.112;2023-08-20T02:21:56;20.40;99.90
17762;DHT22;9005;48.838;10.112;2023-08-20T02:24:23;20.40;99.90
17762;DHT22;9005;48.838;10.112;2023-08-20T02:26:50;20.40;99.90
17762;DHT22;9005;48.838;10.112;2023-08-20T02:29:16;20.30;99.90
17762;DHT22;9005;48.838;10.112;2023-08-20T02:31:43;20.30;99.90
17762;DHT22;9005;48.838;10.112;2023-08-20T02:34:10;20.30;99.90
17762;DHT22;9005;48.838;10.112;2023-08-20T02:36:37;20.30;99.90
17762;DHT22;9005;48.838;10.112;2023-08-20T02:39:05;20.30;99.90
17762;DHT22;9005;48.838;10.112;2023-08-20T02:41:33;20.30;99.90
17762;DHT22;9005;48.838;10.112;2023-08-20T02:44:00;20.30;99.90
17762;DHT22;9005;48.838;10.112;2023-08-20T02:46:26;20.30;99.90
17762;DHT22;9005;48.838;10.112;2023-08-20T02:48:53;20.30;99.90
17762;DHT22;9005;48.838;10.112;2023-08-20T02:51:20;20.30;99.90
17762;DHT22;9005;48.838;10.112;2023-08-20T02:53:46;20.30;99.90
17762;DHT22;9005;48.838;10.112;2023-08-20T02:56:15;20.30;99.90
17762;DHT22;9005;48.838;10.112;2023-08-20T02:58:41;20.30;99.90
17762;DHT22;9005;48.838;10.112;2023-08-20T03:01:17;20.30;99.90
17762;DHT22;9005;48.838;10.112;2023-08-20T03:03:44;20.30;99.90
17762;DHT22;9005;48.838;10.112;2023-08-20T03:06:11;20.20;99.90
17762;DHT22;9005;48.838;10.112;2023-08-20T03:08:38;20.30;99.90
17762;DHT22;9005;48.838;10.112;2023-08-20T03:11:04;20.20;99.90
17762;DHT22;9005;48.838;10.112;2023-08-20T03:13:32;20.20;99.90
17762;DHT22;9005;48.838;10.112;2023-08-20T03:15:59;20.20;99.90
17762;DHT22;9005;48.838;10.112;2023-08-20T03:18:26;20.20;99.90
17762;DHT22;9005;48.838;10.112;2023-08-20T03:20:54;20.20;99.90
17762;DHT22;9005;48.838;10.112;2023-08-20T03:23:21;20.60;99.90
17762;DHT22;9005;48.838;10.112;2023-08-20T03:25:48;20.20;99.90
17762;DHT22;9005;48.838;10.112;2023-08-20T03:28:15;20.20;99.90
17762;DHT22;9005;48.838;10.112;2023-08-20T03:30:43;20.10;99.90
17762;DHT22;9005;48.838;10.112;2023-08-20T03:33:10;20.10;99.90
17762;DHT22;9005;48.838;10.112;2023-08-20T03:35:36;20.10;99.90
17762;DHT22;9005;48.838;10.112;2023-08-20T03:38:03;20.00;99.90
17762;DHT22;9005;48.838;10.112;2023-08-20T03:40:30;20.00;99.90
17762;DHT22;9005;48.838;10.112;2023-08-20T03:42:57;20.00;99.90
17762;DHT22;9005;48.838;10.112;2023-08-20T03:45:23;20.00;99.90
17762;DHT22;9005;48.838;10.112;2023-08-20T03:47:51;20.00;99.90
17762;DHT22;9005;48.838;10.112;2023-08-20T03:50:18;20.00;99.90
17762;DHT22;9005;48.838;10.112;2023-08-20T03:52:45;19.90;99.90
17762;DHT22;9005;48.838;10.112;2023-08-20T03:55:12;19.90;99.90
17762;DHT22;9005;48.838;10.112;2023-08-20T03:57:39;19.80;99.90
17762;DHT22;9005;48.838;10.112;2023-08-20T04:00:06;19.80;99.90
17762;DHT22;9005;48.838;10.112;2023-08-20T04:02:35;19.60;99.90
17762;DHT22;9005;48.838;10.112;2023-08-20T04:05:03;19.70;99.90
17762;DHT22;9005;48.838;10.112;2023-08-20T04:07:30;19.70;99.90
17762;DHT22;9005;48.838;10.112;2023-08-20T04:09:57;19.70;99.90
17762;DHT22;9005;48.838;10.112;2023-08-20T04:12:24;19.70;99.90
17762;DHT22;9005;48.838;10.112;2023-08-20T04:14:51;19.70;99.90
17762;DHT22;9005;48.838;10.112;2023-08-20T04:17:17;19.70;99.90
17762;DHT22;9005;48.838;10.112;2023-08-20T04:19:44;19.60;99.90
17762;DHT22;9005;48.838;10.112;2023-08-20T04:22:12;19.70;99.90
17762;DHT22;9005;48.838;10.112;2023-08-20T04:24:39;19.60;99.90
17762;DHT22;9005;48.838;10.112;2023-08-20T04:27:06;19.60;99.90
17762;DHT22;9005;48.838;10.112;2023-08-20T04:29:33;19.60;99.90
17762;DHT22;9005;48.838;10.112;2023-08-20T04:31:59;19.60;99.90
17762;DHT22;9005;48.838;10.112;2023-08-20T04:34:26;19.60;99.90
17762;DHT22;9005;48.838;10.112;2023-08-20T04:36:53;19.60;99.90
17762;DHT22;9005;48.838;10.112;2023-08-20T04:39:21;19.60;99.90
17762;DHT22;9005;48.838;10.112;2023-08-20T04:41:47;19.60;99.90
17762;DHT22;9005;48.838;10.112;2023-08-20T04:44:14;19.60;99.90
17762;DHT22;9005;48.838;10.112;2023-08-20T04:46:41;19.60;99.90
17762;DHT22;9005;48.838;10.112;2023-08-20T04:49:08;19.60;99.90
17762;DHT22;9005;48.838;10.112;2023-08-20T04:51:35;19.60;99.90
17762;DHT22;9005;48.838;10.112;2023-08-20T04:54:02;19.60;99.90
17762;DHT22;9005;48.838;10.112;2023-08-20T04:56:30;19.60;99.90
17762;DHT22;9005;48.838;10.112;2023-08-20T04:58:56;19.70;99.90
17762;DHT22;9005;48.838;10.112;2023-08-20T05:01:23;19.70;99.90
17762;DHT22;9005;48.838;10.112;2023-08-20T05:03:50;19.70;99.90
17762;DHT22;9005;48.838;10.112;2023-08-20T05:06:17;19.70;99.90
17762;DHT22;9005;48.838;10.112;2023-08-20T05:08:43;19.70;99.90
17762;DHT22;9005;48.838;10.112;2023-08-20T05:11:10;19.80;99.90
17762;DHT22;9005;48.838;10.112;2023-08-20T05:13:38;19.80;99.90
17762;DHT22;9005;48.838;10.112;2023-08-20T05:16:05;19.90;99.90
17762;DHT22;9005;48.838;10.112;2023-08-20T05:18:31;19.90;99.90
17762;DHT22;9005;48.838;10.112;2023-08-20T05:20:58;19.90;99.90
17762;DHT22;9005;48.838;10.112;2023-08-20T05:23:25;19.90;99.90
17762;DHT22;9005;48.838;10.112;2023-08-20T05:25:51;19.90;99.90
17762;DHT22;9005;48.838;10.112;2023-08-20T05:28:18;20.00;99.90
17762;DHT22;9005;48.838;10.112;2023-08-20T05:30:54;20.00;99.90
17762;DHT22;9005;48.838;10.112;2023-08-20T05:33:21;20.10;99.90
17762;DHT22;9005;48.838;10.112;2023-08-20T05:35:48;20.10;99.90
17762;DHT22;9005;48.838;10.112;2023-08-20T05:38:15;20.20;99.90
17762;DHT22;9005;48.838;10.112;2023-08-20T05:40:41;20.30;99.90
17762;DHT22;9005;48.838;10.112;2023-08-20T05:43:08;20.30;99.90
17762;DHT22;9005;48.838;10.112;2023-08-20T05:45:35;20.30;99.90
17762;DHT22;9005;48.838;10.112;2023-08-20T05:48:03;20.40;99.90
17762;DHT22;9005;48.838;10.112;2023-08-20T05:50:30;20.50;99.90
17762;DHT22;9005;48.838;10.112;2023-08-20T05:52:57;20.50;99.90
17762;DHT22;9005;48.838;10.112;2023-08-20T05:55:24;20.60;99.90
17762;DHT22;9005;48.838;10.112;2023-08-20T05:57:50;20.60;99.90
17762;DHT22;9005;48.838;10.112;2023-08-20T06:00:17;20.70;99.90
17762;DHT22;9005;48.838;10.112;2023-08-20T06:02:44;20.70;99.90
17762;DHT22;9005;48.838;10.112;2023-08-20T06:05:12;20.80;99.90
17762;DHT22;9005;48.838;10.112;2023-08-20T06:07:39;20.90;99.90
17762;DHT22;9005;48.838;10.112;2023-08-20T06:10:07;20.90;99.90
17762;DHT22;9005;48.838;10.112;2023-08-20T06:12:33;21.00;99.90
17762;DHT22;9005;48.838;10.112;2023-08-20T06:15:00;21.20;99.90
17762;DHT22;9005;48.838;10.112;2023-08-20T06:24:50;21.80;99.90
17762;DHT22;9005;48.838;10.112;2023-08-20T06:27:17;21.80;99.90
17762;DHT22;9005;48.838;10.112;2023-08-20T06:29:43;21.80;99.90
17762;DHT22;9005;48.838;10.112;2023-08-20T06:32:10;21.90;99.90
17762;DHT22;9005;48.838;10.112;2023-08-20T06:34:37;22.10;99.90
17762;DHT22;9005;48.838;10.112;2023-08-20T06:37:03;22.00;99.90
17762;DHT22;9005;48.838;10.112;2023-08-20T06:39:32;22.00;99.90
17762;DHT22;9005;48.838;10.112;2023-08-20T06:41:58;22.00;99.90
17762;DHT22;9005;48.838;10.112;2023-08-20T06:44:25;22.10;99.90
17762;DHT22;9005;48.838;10.112;2023-08-20T06:46:52;22.10;99.90
17762;DHT22;9005;48.838;10.112;2023-08-20T06:49:18;22.20;99.90
17762;DHT22;9005;48.838;10.112;2023-08-20T06:51:45;22.20;99.90
17762;DHT22;9005;48.838;10.112;2023-08-20T06:54:12;22.30;99.90
17762;DHT22;9005;48.838;10.112;2023-08-20T06:56:40;22.40;99.90
17762;DHT22;9005;48.838;10.112;2023-08-20T06:59:07;22.50;99.90
17762;DHT22;9005;48.838;10.112;2023-08-20T07:01:34;22.60;99.90
17762;DHT22;9005;48.838;10.112;2023-08-20T07:04:00;22.80;99.90
17762;DHT22;9005;48.838;10.112;2023-08-20T07:06:27;22.80;99.90
17762;DHT22;9005;48.838;10.112;2023-08-20T07:08:54;23.00;99.90
17762;DHT22;9005;48.838;10.112;2023-08-20T07:11:21;23.10;99.90
17762;DHT22;9005;48.838;10.112;2023-08-20T07:13:49;23.20;99.90
17762;DHT22;9005;48.838;10.112;2023-08-20T07:16:16;23.30;99.90
17762;DHT22;9005;48.838;10.112;2023-08-20T07:18:43;23.40;99.90
17762;DHT22;9005;48.838;10.112;2023-08-20T07:21:10;23.50;99.90
17762;DHT22;9005;48.838;10.112;2023-08-20T07:23:36;23.70;99.90
17762;DHT22;9005;48.838;10.112;2023-08-20T07:26:07;23.60;99.90
17762;DHT22;9005;48.838;10.112;2023-08-20T07:28:35;23.70;99.90
17762;DHT22;9005;48.838;10.112;2023-08-20T07:31:21;23.80;99.90
17762;DHT22;9005;48.838;10.112;2023-08-20T07:33:48;23.80;99.90
17762;DHT22;9005;48.838;10.112;2023-08-20T07:36:15;23.80;99.90
17762;DHT22;9005;48.838;10.112;2023-08-20T07:38:43;23.80;99.90
17762;DHT22;9005;48.838;10.112;2023-08-20T07:41:10;23.90;99.90
17762;DHT22;9005;48.838;10.112;2023-08-20T07:43:38;23.90;99.90
17762;DHT22;9005;48.838;10.112;2023-08-20T07:46:06;23.90;99.90
17762;DHT22;9005;48.838;10.112;2023-08-20T07:48:34;24.00;99.90
17762;DHT22;9005;48.838;10.112;2023-08-20T07:51:00;24.10;99.90
17762;DHT22;9005;48.838;10.112;2023-08-20T07:53:28;24.20;99.90
17762;DHT22;9005;48.838;10.112;2023-08-20T07:55:55;24.30;99.90
17762;DHT22;9005;48.838;10.112;2023-08-20T07:58:21;24.40;99.90
17762;DHT22;9005;48.838;10.112;2023-08-20T08:00:48;24.50;99.90
17762;DHT22;9005;48.838;10.112;2023-08-20T08:03:15;24.60;99.90
17762;DHT22;9005;48.838;10.112;2023-08-20T08:05:46;24.60;99.90
17762;DHT22;9005;48.838;10.112;2023-08-20T08:08:14;24.70;99.90
17762;DHT22;9005;48.838;10.112;2023-08-20T08:10:41;24.80;99.90
17762;DHT22;9005;48.838;10.112;2023-08-20T08:13:09;24.90;99.90
17762;DHT22;9005;48.838;10.112;2023-08-20T08:15:36;24.90;99.90
17762;DHT22;9005;48.838;10.112;2023-08-20T08:18:03;25.00;99.90
17762;DHT22;9005;48.838;10.112;2023-08-20T08:20:30;25.20;99.90
17762;DHT22;9005;48.838;10.112;2023-08-20T08:22:58;25.20;99.90
17762;DHT22;9005;48.838;10.112;2023-08-20T08:25:25;25.30;99.90
17762;DHT22;9005;48.838;10.112;2023-08-20T08:27:52;25.40;99.90
17762;DHT22;9005;48.838;10.112;2023-08-20T08:30:18;25.50;99.90
17762;DHT22;9005;48.838;10.112;2023-08-20T08:32:45;25.60;99.90
17762;DHT22;9005;48.838;10.112;2023-08-20T08:35:12;25.80;99.90
17762;DHT22;9005;48.838;10.112;2023-08-20T08:37:39;25.80;99.90
17762;DHT22;9005;48.838;10.112;2023-08-20T08:40:08;25.90;99.90
17762;DHT22;9005;48.838;10.112;2023-08-20T08:42:35;25.90;99.90
17762;DHT22;9005;48.838;10.112;2023-08-20T08:45:03;25.90;99.90
17762;DHT22;9005;48.838;10.112;2023-08-20T08:47:30;25.90;99.90
17762;DHT22;9005;48.838;10.112;2023-08-20T08:49:57;25.90;99.90
17762;DHT22;9005;48.838;10.112;2023-08-20T08:52:24;26.00;99.90
17762;DHT22;9005;48.838;10.112;2023-08-20T08:54:52;26.00;99.90
17762;DHT22;9005;48.838;10.112;2023-08-20T08:57:20;26.20;99.90
17762;DHT22;9005;48.838;10.112;2023-08-20T08:59:47;26.30;99.90
17762;DHT22;9005;48.838;10.112;2023-08-20T09:02:17;26.40;99.90
17762;DHT22;9005;48.838;10.112;2023-08-20T09:04:44;26.50;99.90
17762;DHT22;9005;48.838;10.112;2023-08-20T09:07:12;26.50;99.90
17762;DHT22;9005;48.838;10.112;2023-08-20T09:09:42;26.50;99.90
17762;DHT22;9005;48.838;10.112;2023-08-20T09:12:13;26.60;99.90
17762;DHT22;9005;48.838;10.112;2023-08-20T09:14:45;26.70;99.90
17762;DHT22;9005;48.838;10.112;2023-08-20T09:17:13;26.80;99.90
17762;DHT22;9005;48.838;10.112;2023-08-20T09:19:40;26.90;99.90
17762;DHT22;9005;48.838;10.112;2023-08-20T09:22:08;27.00;99.90
17762;DHT22;9005;48.838;10.112;2023-08-20T09:24:39;27.10;99.90
17762;DHT22;9005;48.838;10.112;2023-08-20T09:27:07;27.20;99.90
17762;DHT22;9005;48.838;10.112;2023-08-20T09:29:45;27.40;99.90
17762;DHT22;9005;48.838;10.112;2023-08-20T09:32:14;27.40;99.90
17762;DHT22;9005;48.838;10.112;2023-08-20T09:34:41;27.60;99.90
17762;DHT22;9005;48.838;10.112;2023-08-20T09:37:09;27.80;99.90
17762;DHT22;9005;48.838;10.112;2023-08-20T09:39:36;27.90;99.90
17762;DHT22;9005;48.838;10.112;2023-08-20T09:42:04;28.00;99.90
17762;DHT22;9005;48.838;10.112;2023-08-20T09:44:33;28.10;99.90
17762;DHT22;9005;48.838;10.112;2023-08-20T09:47:05;28.30;99.90
17762;DHT22;9005;48.838;10.112;2023-08-20T09:49:38;28.20;99.90
17762;DHT22;9005;48.838;10.112;2023-08-20T09:52:07;28.40;99.90
17762;DHT22;9005;48.838;10.112;2023-08-20T09:54:47;28.50;99.90
17762;DHT22;9005;48.838;10.112;2023-08-20T09:57:23;28.50;99.90
17762;DHT22;9005;48.838;10.112;2023-08-20T09:59:52;28.40;99.90
17762;DHT22;9005;48.838;10.112;2023-08-20T10:02:21;28.30;99.90
17762;DHT22;9005;48.838;10.112;2023-08-20T10:04:49;28.30;99.90
17762;DHT22;9005;48.838;10.112;2023-08-20T10:07:17;27.50;99.90
17762;DHT22;9005;48.838;10.112;2023-08-20T10:09:44;28.20;99.90
17762;DHT22;9005;48.838;10.112;2023-08-20T10:12:12;28.20;99.90
17762;DHT22;9005;48.838;10.112;2023-08-20T10:14:39;28.40;99.90
17762;DHT22;9005;48.838;10.112;2023-08-20T10:17:07;28.90;99.90
17762;DHT22;9005;48.838;10.112;2023-08-20T10:19:36;29.80;99.90
17762;DHT22;9005;48.838;10.112;2023-08-20T10:22:03;30.80;95.70
17762;DHT22;9005;48.838;10.112;2023-08-20T10:24:40;31.60;92.80
17762;DHT22;9005;48.838;10.112;2023-08-20T10:27:08;32.30;89.70
17762;DHT22;9005;48.838;10.112;2023-08-20T10:29:36;32.80;85.00
17762;DHT22;9005;48.838;10.112;2023-08-20T10:32:05;33.60;77.60
17762;DHT22;9005;48.838;10.112;2023-08-20T10:34:32;34.30;71.10
17762;DHT22;9005;48.838;10.112;2023-08-20T10:37:02;35.10;58.20
17762;DHT22;9005;48.838;10.112;2023-08-20T10:39:30;35.30;56.50
17762;DHT22;9005;48.838;10.112;2023-08-20T10:42:10;35.60;53.20
17762;DHT22;9005;48.838;10.112;2023-08-20T10:44:58;36.00;50.30
17762;DHT22;9005;48.838;10.112;2023-08-20T10:47:25;36.60;53.10
17762;DHT22;9005;48.838;10.112;2023-08-20T10:49:53;37.40;46.70
17762;DHT22;9005;48.838;10.112;2023-08-20T10:52:22;38.20;42.00
17762;DHT22;9005;48.838;10.112;2023-08-20T10:54:50;38.30;37.60
17762;DHT22;9005;48.838;10.112;2023-08-20T10:57:17;37.60;36.90
17762;DHT22;9005;48.838;10.112;2023-08-20T10:59:56;36.70;39.10
17762;DHT22;9005;48.838;10.112;2023-08-20T11:02:24;36.20;39.00
17762;DHT22;9005;48.838;10.112;2023-08-20T11:04:52;35.80;40.50
17762;DHT22;9005;48.838;10.112;2023-08-20T11:07:23;35.20;43.90
17762;DHT22;9005;48.838;10.112;2023-08-20T11:09:50;35.10;44.80
17762;DHT22;9005;48.838;10.112;2023-08-20T11:12:20;35.50;40.40
17762;DHT22;9005;48.838;10.112;2023-08-20T11:14:47;35.40;41.60
17762;DHT22;9005;48.838;10.112;2023-08-20T11:17:13;36.40;39.50
17762;DHT22;9005;48.838;10.112;2023-08-20T11:19:40;36.90;38.20
17762;DHT22;9005;48.838;10.112;2023-08-20T11:22:08;37.20;37.00
17762;DHT22;9005;48.838;10.112;2023-08-20T11:24:36;37.30;34.70
17762;DHT22;9005;48.838;10.112;2023-08-20T11:27:04;37.40;35.90
17762;DHT22;9005;48.838;10.112;2023-08-20T11:29:31;37.40;34.00
17762;DHT22;9005;48.838;10.112;2023-08-20T11:31:58;37.50;32.70
17762;DHT22;9005;48.838;10.112;2023-08-20T11:34:28;37.60;35.60
17762;DHT22;9005;48.838;10.112;2023-08-20T11:36:55;37.90;32.20
17762;DHT22;9005;48.838;10.112;2023-08-20T11:39:23;38.40;32.80
17762;DHT22;9005;48.838;10.112;2023-08-20T11:41:52;39.10;28.80
17762;DHT22;9005;48.838;10.112;2023-08-20T11:44:22;39.10;27.80
17762;DHT22;9005;48.838;10.112;2023-08-20T11:46:49;38.60;27.60
17762;DHT22;9005;48.838;10.112;2023-08-20T11:49:16;38.40;28.30
17762;DHT22;9005;48.838;10.112;2023-08-20T11:51:44;38.40;29.10
17762;DHT22;9005;48.838;10.112;2023-08-20T11:54:13;38.60;29.60
17762;DHT22;9005;48.838;10.112;2023-08-20T11:56:43;39.10;29.90
17762;DHT22;9005;48.838;10.112;2023-08-20T11:59:11;39.90;27.40
17762;DHT22;9005;48.838;10.112;2023-08-20T12:01:39;40.50;27.70
17762;DHT22;9005;48.838;10.112;2023-08-20T12:04:07;41.00;25.60
17762;DHT22;9005;48.838;10.112;2023-08-20T12:06:34;41.50;26.10
17762;DHT22;9005;48.838;10.112;2023-08-20T12:09:03;41.80;22.60
17762;DHT22;9005;48.838;10.112;2023-08-20T12:11:48;41.50;21.70
17762;DHT22;9005;48.838;10.112;2023-08-20T12:14:16;40.80;22.90
17762;DHT22;9005;48.838;10.112;2023-08-20T12:16:43;40.20;22.70
17762;DHT22;9005;48.838;10.112;2023-08-20T12:19:10;39.60;24.30
17762;DHT22;9005;48.838;10.112;2023-08-20T12:21:37;39.50;26.70
17762;DHT22;9005;48.838;10.112;2023-08-20T12:24:04;39.90;25.80
17762;DHT22;9005;48.838;10.112;2023-08-20T12:26:31;40.40;24.10
17762;DHT22;9005;48.838;10.112;2023-08-20T12:28:58;41.00;23.00
17762;DHT22;9005;48.838;10.112;2023-08-20T12:31:26;41.40;21.90
17762;DHT22;9005;48.838;10.112;2023-08-20T12:33:53;41.90;20.10
17762;DHT22;9005;48.838;10.112;2023-08-20T12:36:19;41.80;20.30
17762;DHT22;9005;48.838;10.112;2023-08-20T12:38:46;41.40;20.70
17762;DHT22;9005;48.838;10.112;2023-08-20T12:41:13;41.10;20.20
17762;DHT22;9005;48.838;10.112;2023-08-20T12:43:40;40.50;20.40
17762;DHT22;9005;48.838;10.112;2023-08-20T12:46:07;39.90;21.60
17762;DHT22;9005;48.838;10.112;2023-08-20T12:48:35;39.40;21.90
17762;DHT22;9005;48.838;10.112;2023-08-20T12:51:02;39.00;21.80
17762;DHT22;9005;48.838;10.112;2023-08-20T12:53:29;38.70;21.30
17762;DHT22;9005;48.838;10.112;2023-08-20T12:55:56;38.70;23.20
17762;DHT22;9005;48.838;10.112;2023-08-20T12:58:22;39.10;22.50
17762;DHT22;9005;48.838;10.112;2023-08-20T13:00:50;39.60;21.70
17762;DHT22;9005;48.838;10.112;2023-08-20T13:03:17;40.20;20.80
17762;DHT22;9005;48.838;10.112;2023-08-20T13:05:46;41.00;20.30
17762;DHT22;9005;48.838;10.112;2023-08-20T13:08:13;41.80;20.60
17762;DHT22;9005;48.838;10.112;2023-08-20T13:10:40;42.60;18.80
17762;DHT22;9005;48.838;10.112;2023-08-20T13:13:09;43.10;16.40
17762;DHT22;9005;48.838;10.112;2023-08-20T13:15:37;43.10;16.40
17762;DHT22;9005;48.838;10.112;2023-08-20T13:18:05;42.90;17.00
17762;DHT22;9005;48.838;10.112;2023-08-20T13:20:33;42.80;17.70
17762;DHT22;9005;48.838;10.112;2023-08-20T13:23:01;42.60;17.90
17762;DHT22;9005;48.838;10.112;2023-08-20T13:25:28;42.50;17.00
17762;DHT22;9005;48.838;10.112;2023-08-20T13:27:54;42.40;17.20
17762;DHT22;9005;48.838;10.112;2023-08-20T13:30:21;42.30;18.30
17762;DHT22;9005;48.838;10.112;2023-08-20T13:32:49;42.30;16.60
17762;DHT22;9005;48.838;10.112;2023-08-20T13:35:16;42.10;16.80
17762;DHT22;9005;48.838;10.112;2023-08-20T13:37:44;42.10;15.60
17762;DHT22;9005;48.838;10.112;2023-08-20T13:40:12;41.60;17.40
17762;DHT22;9005;48.838;10.112;2023-08-20T13:42:39;41.40;17.00
17762;DHT22;9005;48.838;10.112;2023-08-20T13:45:07;41.70;17.50
17762;DHT22;9005;48.838;10.112;2023-08-20T13:47:34;42.10;17.40
17762;DHT22;9005;48.838;10.112;2023-08-20T13:50:00;42.40;16.90
17762;DHT22;9005;48.838;10.112;2023-08-20T13:52:29;42.70;15.40
17762;DHT22;9005;48.838;10.112;2023-08-20T13:54:55;42.60;16.10
17762;DHT22;9005;48.838;10.112;2023-08-20T13:57:23;42.30;16.30
17762;DHT22;9005;48.838;10.112;2023-08-20T13:59:50;42.10;17.30
17762;DHT22;9005;48.838;10.112;2023-08-20T14:02:17;42.10;16.10
17762;DHT22;9005;48.838;10.112;2023-08-20T14:04:44;41.90;15.70
17762;DHT22;9005;48.838;10.112;2023-08-20T14:07:11;41.60;15.90
17762;DHT22;9005;48.838;10.112;2023-08-20T14:09:38;41.50;18.30
17762;DHT22;9005;48.838;10.112;2023-08-20T14:12:06;41.50;16.40
17762;DHT22;9005;48.838;10.112;2023-08-20T14:14:34;41.50;16.20
17762;DHT22;9005;48.838;10.112;2023-08-20T14:17:01;41.60;16.60
17762;DHT22;9005;48.838;10.112;2023-08-20T14:19:28;41.90;16.20
17762;DHT22;9005;48.838;10.112;2023-08-20T14:21:55;42.30;16.20
17762;DHT22;9005;48.838;10.112;2023-08-20T14:24:22;42.30;16.30
17762;DHT22;9005;48.838;10.112;2023-08-20T14:26:48;42.20;16.00
17762;DHT22;9005;48.838;10.112;2023-08-20T14:29:15;42.00;17.50
17762;DHT22;9005;48.838;10.112;2023-08-20T14:34:10;42.00;50.40
17762;DHT22;9005;48.838;10.112;2023-08-20T14:36:37;42.00;17.20
17762;DHT22;9005;48.838;10.112;2023-08-20T14:39:05;42.10;17.00
17762;DHT22;9005;48.838;10.112;2023-08-20T14:41:32;42.40;15.60
17762;DHT22;9005;48.838;10.112;2023-08-20T14:43:59;42.50;16.10
17762;DHT22;9005;48.838;10.112;2023-08-20T14:46:26;42.70;14.60
17762;DHT22;9005;48.838;10.112;2023-08-20T14:48:54;42.70;14.60
17762;DHT22;9005;48.838;10.112;2023-08-20T14:51:21;42.60;14.20
17762;DHT22;9005;48.838;10.112;2023-08-20T14:53:48;42.60;13.80
17762;DHT22;9005;48.838;10.112;2023-08-20T14:56:15;42.80;13.00
17762;DHT22;9005;48.838;10.112;2023-08-20T14:58:41;43.10;13.70
17762;DHT22;9005;48.838;10.112;2023-08-20T15:01:08;43.50;12.60
17762;DHT22;9005;48.838;10.112;2023-08-20T15:03:35;44.20;11.10
17762;DHT22;9005;48.838;10.112;2023-08-20T15:06:03;43.80;11.60
17762;DHT22;9005;48.838;10.112;2023-08-20T15:08:30;43.70;11.80
17762;DHT22;9005;48.838;10.112;2023-08-20T15:10:58;43.90;29.70
17762;DHT22;9005;48.838;10.112;2023-08-20T15:13:26;44.00;11.10
17762;DHT22;9005;48.838;10.112;2023-08-20T15:15:53;43.90;10.90
17762;DHT22;9005;48.838;10.112;2023-08-20T15:18:20;43.80;11.10
17762;DHT22;9005;48.838;10.112;2023-08-20T15:20:53;43.70;10.40
17762;DHT22;9005;48.838;10.112;2023-08-20T15:25:50;43.10;9.70
17762;DHT22;9005;48.838;10.112;2023-08-20T15:28:17;42.80;10.00
17762;DHT22;9005;48.838;10.112;2023-08-20T15:30:44;42.50;11.00
17762;DHT22;9005;48.838;10.112;2023-08-20T15:33:10;42.30;11.10
17762;DHT22;9005;48.838;10.112;2023-08-20T15:35:38;41.90;11.80
17762;DHT22;9005;48.838;10.112;2023-08-20T15:38:04;41.70;11.50
17762;DHT22;9005;48.838;10.112;2023-08-20T15:40:33;41.40;12.40
17762;DHT22;9005;48.838;10.112;2023-08-20T15:42:59;41.30;12.50
17762;DHT22;9005;48.838;10.112;2023-08-20T15:45:26;41.40;11.40
17762;DHT22;9005;48.838;10.112;2023-08-20T15:47:53;41.40;11.70